sensor_id;sensor_type;location;lat;lon;timestamp;temperature;humidity
15749;DHT22;7976;52.526;13.326;2023-05-09T00:01:41;11.30;99.90
15749;DHT22;7976;52.526;13.326;2023-05-09T00:04:09;11.30;99.90
15749;DHT22;7976;52.526;13.326;2023-05-09T00:06:36;11.20;99.90
15749;DHT22;7976;52.526;13.326;2023-05-09T00:09:03;11.20;99.90
15749;DHT22;7976;52.526;13.326;2023-05-09T00:11:31;11.20;99.90
15749;DHT22;7976;52.526;13.326;2023-05-09T00:13:58;11.20;99.90
15749;DHT22;7976;52.526;13.326;2023-05-09T00:16:25;11.20;99.90
15749;DHT22;7976;52.526;13.326;2023-05-09T00:18:53;11.20;99.90
15749;DHT22;7976;52.526;13.326;2023-05-09T00:21:20;11.10;99.90
15749;DHT22;7976;52.526;13.326;2023-05-09T00:23:47;11.10;99.90
15749;DHT22;7976;52.526;13.326;2023-05-09T00:26:14;11.10;99.90
15749;DHT22;7976;52.526;13.326;2023-05-09T00:28:44;11.10;99.90
15749;DHT22;7976;52.526;13.326;2023-05-09T00:31:10;11.00;99.90
15749;DHT22;7976;52.526;13.326;2023-05-09T00:33:37;11.10;99.90
15749;DHT22;7976;52.526;13.326;2023-05-09T00:36:05;11.00;99.90
15749;DHT22;7976;52.526;13.326;2023-05-09T00:38:32;11.00;99.90
15749;DHT22;7976;52.526;13.326;2023-05-09T00:40:59;11.00;99.90
15749;DHT22;7976;52.526;13.326;2023-05-09T00:43:26;11.00;99.90
15749;DHT22;7976;52.526;13.326;2023-05-09T00:45:54;11.00;99.90
15749;DHT22;7976;52.526;13.326;2023-05-09T00:48:21;10.90;99.90
15749;DHT22;7976;52.526;13.326;2023-05-09T00:50:48;10.90;99.90
15749;DHT22;7976;52.526;13.326;2023-05-09T00:53:17;10.90;99.90
15749;DHT22;7976;52.526;13.326;2023-05-09T00:55:44;10.90;99.90
15749;DHT22;7976;52.526;13.326;2023-05-09T00:58:11;10.90;99.90
15749;DHT22;7976;52.526;13.326;2023-05-09T01:00:38;10.80;99.90
15749;DHT22;7976;52.526;13.326;2023-05-09T01:03:07;10.80;99.90
15749;DHT22;7976;52.526;13.326;2023-05-09T01:05:43;10.80;99.90
15749;DHT22;7976;52.526;13.326;2023-05-09T01:08:29;10.80;99.90
15749;DHT22;7976;52.526;13.326;2023-05-09T01:11:10;10.80;99.90
15749;DHT22;7976;52.526;13.326;2023-05-09T01:13:51;10.80;99.90
15749;DHT22;7976;52.526;13.326;2023-05-09T01:16:31;10.80;99.90
15749;DHT22;7976;52.526;13.326;2023-05-09T01:19:15;10.70;99.90
15749;DHT22;7976;52.526;13.326;2023-05-09T01:21:55;10.70;99.90
15749;DHT22;7976;52.526;13.326;2023-05-09T01:24:38;10.70;99.90
15749;DHT22;7976;52.526;13.326;2023-05-09T01:27:32;10.70;99.90
15749;DHT22;7976;52.526;13.326;2023-05-09T01:30:11;10.70;99.90
15749;DHT22;7976;52.526;13.326;2023-05-09T01:32:41;10.70;99.90
15749;DHT22;7976;52.526;13.326;2023-05-09T01:35:13;10.70;99.90
15749;DHT22;7976;52.526;13.326;2023-05-09T01:37:43;10.60;99.90
15749;DHT22;7976;52.526;13.326;2023-05-09T01:40:16;10.60;99.90
15749;DHT22;7976;52.526;13.326;2023-05-09T01:42:50;10.60;99.90
15749;DHT22;7976;52.526;13.326;2023-05-09T01:45:22;10.60;99.90
15749;DHT22;7976;52.526;13.326;2023-05-09T01:47:52;10.50;99.90
15749;DHT22;7976;52.526;13.326;2023-05-09T01:50:20;10.50;99.90
15749;DHT22;7976;52.526;13.326;2023-05-09T01:52:51;10.50;99.90
15749;DHT22;7976;52.526;13.326;2023-05-09T01:55:22;10.50;99.90
15749;DHT22;7976;52.526;13.326;2023-05-09T01:57:52;10.50;99.90
15749;DHT22;7976;52.526;13.326;2023-05-09T02:00:23;10.50;99.90
15749;DHT22;7976;52.526;13.326;2023-05-09T02:02:52;10.40;99.90
15749;DHT22;7976;52.526;13.326;2023-05-09T02:05:22;10.40;99.90
15749;DHT22;7976;52.526;13.326;2023-05-09T02:07:53;10.40;99.90
15749;DHT22;7976;52.526;13.326;2023-05-09T02:10:24;10.40;99.90
15749;DHT22;7976;52.526;13.326;2023-05-09T02:12:53;10.40;99.90
15749;DHT22;7976;52.526;13.326;2023-05-09T02:15:22;10.40;99.90
15749;DHT22;7976;52.526;13.326;2023-05-09T02:17:50;10.40;99.90
15749;DHT22;7976;52.526;13.326;2023-05-09T02:20:17;10.40;99.90
15749;DHT22;7976;52.526;13.326;2023-05-09T02:22:44;10.40;99.90
15749;DHT22;7976;52.526;13.326;2023-05-09T02:25:12;10.40;99.90
15749;DHT22;7976;52.526;13.326;2023-05-09T02:27:41;10.30;99.90
15749;DHT22;7976;52.526;13.326;2023-05-09T02:30:14;10.30;99.90
15749;DHT22;7976;52.526;13.326;2023-05-09T02:32:48;10.30;99.90
15749;DHT22;7976;52.526;13.326;2023-05-09T02:35:18;10.30;99.90
15749;DHT22;7976;52.526;13.326;2023-05-09T02:37:47;10.30;99.90
15749;DHT22;7976;52.526;13.326;2023-05-09T02:40:15;10.30;99.90
15749;DHT22;7976;52.526;13.326;2023-05-09T02:42:43;10.30;99.90
15749;DHT22;7976;52.526;13.326;2023-05-09T02:45:10;10.30;99.90
15749;DHT22;7976;52.526;13.326;2023-05-09T02:47:37;10.30;99.90
15749;DHT22;7976;52.526;13.326;2023-05-09T02:50:07;10.30;99.90
15749;DHT22;7976;52.526;13.326;2023-05-09T02:52:36;10.30;99.90
15749;DHT22;7976;52.526;13.326;2023-05-09T02:55:03;10.20;99.90
15749;DHT22;7976;52.526;13.326;2023-05-09T02:57:34;10.20;99.90
15749;DHT22;7976;52.526;13.326;2023-05-09T03:00:03;10.20;99.90
15749;DHT22;7976;52.526;13.326;2023-05-09T03:02:33;10.20;99.90
15749;DHT22;7976;52.526;13.326;2023-05-09T03:05:00;10.20;99.90
15749;DHT22;7976;52.526;13.326;2023-05-09T03:07:29;10.10;99.90
15749;DHT22;7976;52.526;13.326;2023-05-09T03:09:56;10.10;99.90
15749;DHT22;7976;52.526;13.326;2023-05-09T03:12:23;10.10;99.90
15749;DHT22;7976;52.526;13.326;2023-05-09T03:14:52;10.10;99.90
15749;DHT22;7976;52.526;13.326;2023-05-09T03:17:19;10.10;99.90
15749;DHT22;7976;52.526;13.326;2023-05-09T03:19:48;10.10;99.90
15749;DHT22;7976;52.526;13.326;2023-05-09T03:22:15;10.10;99.90
15749;DHT22;7976;52.526;13.326;2023-05-09T03:24:55;10.10;99.90
15749;DHT22;7976;52.526;13.326;2023-05-09T03:27:22;10.10;99.90
15749;DHT22;7976;52.526;13.326;2023-05-09T03:29:50;10.00;99.90
15749;DHT22;7976;52.526;13.326;2023-05-09T03:32:18;10.00;99.90
15749;DHT22;7976;52.526;13.326;2023-05-09T03:34:45;10.00;99.90
15749;DHT22;7976;52.526;13.326;2023-05-09T03:37:12;10.00;99.90
15749;DHT22;7976;52.526;13.326;2023-05-09T03:39:40;10.00;99.90
15749;DHT22;7976;52.526;13.326;2023-05-09T03:42:08;10.00;99.90
15749;DHT22;7976;52.526;13.326;2023-05-09T03:44:35;10.00;99.90
15749;DHT22;7976;52.526;13.326;2023-05-09T03:47:02;10.00;99.90
15749;DHT22;7976;52.526;13.326;2023-05-09T03:49:35;10.00;99.90
15749;DHT22;7976;52.526;13.326;2023-05-09T03:52:02;10.00;99.90
15749;DHT22;7976;52.526;13.326;2023-05-09T03:54:29;10.00;99.90
15749;DHT22;7976;52.526;13.326;2023-05-09T03:56:56;10.10;99.90
15749;DHT22;7976;52.526;13.326;2023-05-09T03:59:24;10.00;99.90
15749;DHT22;7976;52.526;13.326;2023-05-09T04:01:52;10.00;99.90
15749;DHT22;7976;52.526;13.326;2023-05-09T04:04:20;10.00;99.90
15749;DHT22;7976;52.526;13.326;2023-05-09T04:06:47;10.00;99.90
15749;DHT22;7976;52.526;13.326;2023-05-09T04:09:16;10.00;99.90
15749;DHT22;7976;52.526;13.326;2023-05-09T04:11:44;10.00;99.90
15749;DHT22;7976;52.526;13.326;2023-05-09T04:14:13;10.00;99.90
15749;DHT22;7976;52.526;13.326;2023-05-09T04:16:41;10.00;99.90
15749;DHT22;7976;52.526;13.326;2023-05-09T04:19:08;10.00;99.90
15749;DHT22;7976;52.526;13.326;2023-05-09T04:21:35;10.00;99.90
15749;DHT22;7976;52.526;13.326;2023-05-09T04:24:03;10.00;99.90
15749;DHT22;7976;52.526;13.326;2023-05-09T04:26:36;10.00;99.90
15749;DHT22;7976;52.526;13.326;2023-05-09T04:29:05;10.00;99.90
15749;DHT22;7976;52.526;13.326;2023-05-09T04:31:33;10.10;99.90
15749;DHT22;7976;52.526;13.326;2023-05-09T04:34:02;10.10;99.90
15749;DHT22;7976;52.526;13.326;2023-05-09T04:36:31;10.10;99.90
15749;DHT22;7976;52.526;13.326;2023-05-09T04:38:59;10.10;99.90
15749;DHT22;7976;52.526;13.326;2023-05-09T04:41:26;10.10;99.90
15749;DHT22;7976;52.526;13.326;2023-05-09T04:43:53;10.10;99.90
15749;DHT22;7976;52.526;13.326;2023-05-09T04:46:21;10.10;99.90
15749;DHT22;7976;52.526;13.326;2023-05-09T04:48:48;10.10;99.90
15749;DHT22;7976;52.526;13.326;2023-05-09T04:51:16;10.10;99.90
15749;DHT22;7976;52.526;13.326;2023-05-09T04:53:43;10.10;99.90
15749;DHT22;7976;52.526;13.326;2023-05-09T04:56:10;10.20;99.90
15749;DHT22;7976;52.526;13.326;2023-05-09T04:58:37;10.20;99.90
15749;DHT22;7976;52.526;13.326;2023-05-09T05:01:08;10.20;99.90
15749;DHT22;7976;52.526;13.326;2023-05-09T05:03:35;10.20;99.90
15749;DHT22;7976;52.526;13.326;2023-05-09T05:06:02;10.30;99.90
15749;DHT22;7976;52.526;13.326;2023-05-09T05:08:32;10.30;99.90
15749;DHT22;7976;52.526;13.326;2023-05-09T05:10:59;10.40;99.90
15749;DHT22;7976;52.526;13.326;2023-05-09T05:13:26;10.40;99.90
15749;DHT22;7976;52.526;13.326;2023-05-09T05:15:56;10.50;99.90
15749;DHT22;7976;52.526;13.326;2023-05-09T05:18:24;10.50;99.90
15749;DHT22;7976;52.526;13.326;2023-05-09T05:20:51;10.60;99.90
15749;DHT22;7976;52.526;13.326;2023-05-09T05:23:17;10.60;99.90
15749;DHT22;7976;52.526;13.326;2023-05-09T05:25:46;10.60;99.90
15749;DHT22;7976;52.526;13.326;2023-05-09T05:28:13;10.60;99.90
15749;DHT22;7976;52.526;13.326;2023-05-09T05:30:40;10.70;99.90
15749;DHT22;7976;52.526;13.326;2023-05-09T05:33:07;10.80;99.90
15749;DHT22;7976;52.526;13.326;2023-05-09T05:35:34;10.80;99.90
15749;DHT22;7976;52.526;13.326;2023-05-09T05:38:01;10.90;99.90
15749;DHT22;7976;52.526;13.326;2023-05-09T05:40:28;10.90;99.90
15749;DHT22;7976;52.526;13.326;2023-05-09T05:42:57;11.00;99.90
15749;DHT22;7976;52.526;13.326;2023-05-09T05:45:25;11.10;99.90
15749;DHT22;7976;52.526;13.326;2023-05-09T05:47:55;11.20;99.90
15749;DHT22;7976;52.526;13.326;2023-05-09T05:50:23;11.20;99.90
15749;DHT22;7976;52.526;13.326;2023-05-09T05:52:50;11.30;99.90
15749;DHT22;7976;52.526;13.326;2023-05-09T05:55:18;11.30;99.90
15749;DHT22;7976;52.526;13.326;2023-05-09T05:57:45;11.40;99.90
15749;DHT22;7976;52.526;13.326;2023-05-09T06:00:15;11.40;99.90
15749;DHT22;7976;52.526;13.326;2023-05-09T06:02:46;11.50;99.90
15749;DHT22;7976;52.526;13.326;2023-05-09T06:05:20;11.60;99.90
15749;DHT22;7976;52.526;13.326;2023-05-09T06:07:48;11.70;99.90
15749;DHT22;7976;52.526;13.326;2023-05-09T06:10:15;11.70;99.90
15749;DHT22;7976;52.526;13.326;2023-05-09T06:12:44;11.70;99.90
15749;DHT22;7976;52.526;13.326;2023-05-09T06:15:11;11.80;99.90
15749;DHT22;7976;52.526;13.326;2023-05-09T06:17:42;11.90;99.90
15749;DHT22;7976;52.526;13.326;2023-05-09T06:20:09;12.00;99.90
15749;DHT22;7976;52.526;13.326;2023-05-09T06:22:37;12.20;99.90
15749;DHT22;7976;52.526;13.326;2023-05-09T06:25:04;12.30;99.90
15749;DHT22;7976;52.526;13.326;2023-05-09T06:27:31;12.40;99.90
15749;DHT22;7976;52.526;13.326;2023-05-09T06:29:58;12.40;99.90
15749;DHT22;7976;52.526;13.326;2023-05-09T06:32:25;12.50;99.90
15749;DHT22;7976;52.526;13.326;2023-05-09T06:34:53;12.70;99.90
15749;DHT22;7976;52.526;13.326;2023-05-09T06:37:20;13.00;99.90
15749;DHT22;7976;52.526;13.326;2023-05-09T06:39:46;13.10;99.90
15749;DHT22;7976;52.526;13.326;2023-05-09T06:42:14;13.20;99.90
15749;DHT22;7976;52.526;13.326;2023-05-09T06:44:42;13.20;99.90
15749;DHT22;7976;52.526;13.326;2023-05-09T06:47:09;13.20;99.90
15749;DHT22;7976;52.526;13.326;2023-05-09T06:49:36;13.30;99.90
15749;DHT22;7976;52.526;13.326;2023-05-09T06:52:04;13.30;99.60
15749;DHT22;7976;52.526;13.326;2023-05-09T06:54:31;13.40;99.50
15749;DHT22;7976;52.526;13.326;2023-05-09T06:56:58;13.40;99.50
15749;DHT22;7976;52.526;13.326;2023-05-09T06:59:25;13.50;99.60
15749;DHT22;7976;52.526;13.326;2023-05-09T07:01:52;13.50;99.70
15749;DHT22;7976;52.526;13.326;2023-05-09T07:04:20;13.70;99.80
15749;DHT22;7976;52.526;13.326;2023-05-09T07:06:47;13.80;99.50
15749;DHT22;7976;52.526;13.326;2023-05-09T07:09:15;13.90;99.20
15749;DHT22;7976;52.526;13.326;2023-05-09T07:11:45;13.90;99.00
15749;DHT22;7976;52.526;13.326;2023-05-09T07:14:11;13.90;98.70
15749;DHT22;7976;52.526;13.326;2023-05-09T07:16:38;13.90;98.60
15749;DHT22;7976;52.526;13.326;2023-05-09T07:19:05;13.90;98.60
15749;DHT22;7976;52.526;13.326;2023-05-09T07:21:32;13.90;98.80
15749;DHT22;7976;52.526;13.326;2023-05-09T07:23:58;13.90;98.80
15749;DHT22;7976;52.526;13.326;2023-05-09T07:26:27;14.00;98.70
15749;DHT22;7976;52.526;13.326;2023-05-09T07:28:53;14.10;98.60
15749;DHT22;7976;52.526;13.326;2023-05-09T07:31:21;14.20;98.30
15749;DHT22;7976;52.526;13.326;2023-05-09T07:33:48;14.30;97.70
15749;DHT22;7976;52.526;13.326;2023-05-09T07:36:14;14.40;97.40
15749;DHT22;7976;52.526;13.326;2023-05-09T07:38:44;14.40;97.50
15749;DHT22;7976;52.526;13.326;2023-05-09T07:41:12;14.50;97.40
15749;DHT22;7976;52.526;13.326;2023-05-09T07:43:40;14.70;97.10
15749;DHT22;7976;52.526;13.326;2023-05-09T07:46:07;14.70;96.60
15749;DHT22;7976;52.526;13.326;2023-05-09T07:48:33;14.80;96.50
15749;DHT22;7976;52.526;13.326;2023-05-09T07:51:00;14.80;96.30
15749;DHT22;7976;52.526;13.326;2023-05-09T07:53:27;14.90;96.30
15749;DHT22;7976;52.526;13.326;2023-05-09T07:55:54;15.00;96.00
15749;DHT22;7976;52.526;13.326;2023-05-09T07:58:22;15.10;95.90
15749;DHT22;7976;52.526;13.326;2023-05-09T08:00:50;15.10;95.50
15749;DHT22;7976;52.526;13.326;2023-05-09T08:03:17;15.10;95.50
15749;DHT22;7976;52.526;13.326;2023-05-09T08:05:45;15.20;95.20
15749;DHT22;7976;52.526;13.326;2023-05-09T08:08:15;15.30;95.20
15749;DHT22;7976;52.526;13.326;2023-05-09T08:10:42;15.40;95.20
15749;DHT22;7976;52.526;13.326;2023-05-09T08:13:10;15.50;94.90
15749;DHT22;7976;52.526;13.326;2023-05-09T08:15:37;15.60;94.90
15749;DHT22;7976;52.526;13.326;2023-05-09T08:18:05;15.60;94.50
15749;DHT22;7976;52.526;13.326;2023-05-09T08:20:31;15.70;94.50
15749;DHT22;7976;52.526;13.326;2023-05-09T08:22:58;15.80;93.90
15749;DHT22;7976;52.526;13.326;2023-05-09T08:25:25;15.80;93.60
15749;DHT22;7976;52.526;13.326;2023-05-09T08:27:52;16.00;93.20
15749;DHT22;7976;52.526;13.326;2023-05-09T08:30:19;16.10;92.90
15749;DHT22;7976;52.526;13.326;2023-05-09T08:32:46;16.10;92.60
15749;DHT22;7976;52.526;13.326;2023-05-09T08:35:14;16.20;92.30
15749;DHT22;7976;52.526;13.326;2023-05-09T08:37:41;16.20;92.30
15749;DHT22;7976;52.526;13.326;2023-05-09T08:40:08;16.30;92.40
15749;DHT22;7976;52.526;13.326;2023-05-09T08:42:36;16.30;92.30
15749;DHT22;7976;52.526;13.326;2023-05-09T08:45:08;16.40;92.30
15749;DHT22;7976;52.526;13.326;2023-05-09T08:47:37;16.50;92.20
15749;DHT22;7976;52.526;13.326;2023-05-09T08:50:05;16.50;91.80
15749;DHT22;7976;52.526;13.326;2023-05-09T08:52:35;16.60;91.80
15749;DHT22;7976;52.526;13.326;2023-05-09T08:55:02;16.70;91.30
15749;DHT22;7976;52.526;13.326;2023-05-09T08:57:31;16.80;91.10
15749;DHT22;7976;52.526;13.326;2023-05-09T08:59:59;16.80;90.90
15749;DHT22;7976;52.526;13.326;2023-05-09T09:02:31;16.80;91.00
15749;DHT22;7976;52.526;13.326;2023-05-09T09:04:58;16.80;91.30
15749;DHT22;7976;52.526;13.326;2023-05-09T09:07:27;16.90;91.30
15749;DHT22;7976;52.526;13.326;2023-05-09T09:09:57;16.90;91.10
15749;DHT22;7976;52.526;13.326;2023-05-09T09:12:26;16.90;91.30
15749;DHT22;7976;52.526;13.326;2023-05-09T09:14:54;17.00;91.40
15749;DHT22;7976;52.526;13.326;2023-05-09T09:17:24;17.10;91.30
15749;DHT22;7976;52.526;13.326;2023-05-09T09:19:54;17.10;91.10
15749;DHT22;7976;52.526;13.326;2023-05-09T09:22:27;17.10;91.10
15749;DHT22;7976;52.526;13.326;2023-05-09T09:24:59;17.10;91.20
15749;DHT22;7976;52.526;13.326;2023-05-09T09:27:27;17.10;91.30
15749;DHT22;7976;52.526;13.326;2023-05-09T09:29:54;17.10;91.10
15749;DHT22;7976;52.526;13.326;2023-05-09T09:32:31;17.10;91.20
15749;DHT22;7976;52.526;13.326;2023-05-09T09:35:03;17.10;91.50
15749;DHT22;7976;52.526;13.326;2023-05-09T09:37:33;17.30;91.50
15749;DHT22;7976;52.526;13.326;2023-05-09T09:40:02;17.40;90.90
15749;DHT22;7976;52.526;13.326;2023-05-09T09:42:40;17.50;90.80
15749;DHT22;7976;52.526;13.326;2023-05-09T09:45:13;17.60;90.30
15749;DHT22;7976;52.526;13.326;2023-05-09T09:47:43;17.60;90.10
15749;DHT22;7976;52.526;13.326;2023-05-09T09:50:13;17.60;90.10
15749;DHT22;7976;52.526;13.326;2023-05-09T09:52:42;17.70;90.30
15749;DHT22;7976;52.526;13.326;2023-05-09T09:55:15;17.80;88.80
15749;DHT22;7976;52.526;13.326;2023-05-09T09:57:43;17.90;88.90
15749;DHT22;7976;52.526;13.326;2023-05-09T10:00:12;17.90;88.00
15749;DHT22;7976;52.526;13.326;2023-05-09T10:02:48;17.80;87.70
15749;DHT22;7976;52.526;13.326;2023-05-09T10:05:20;17.70;87.30
15749;DHT22;7976;52.526;13.326;2023-05-09T10:07:53;17.80;87.30
15749;DHT22;7976;52.526;13.326;2023-05-09T10:10:25;17.90;88.00
15749;DHT22;7976;52.526;13.326;2023-05-09T10:12:55;18.10;88.30
15749;DHT22;7976;52.526;13.326;2023-05-09T10:15:23;18.10;87.40
15749;DHT22;7976;52.526;13.326;2023-05-09T10:17:53;18.20;87.70
15749;DHT22;7976;52.526;13.326;2023-05-09T10:20:23;18.30;87.90
15749;DHT22;7976;52.526;13.326;2023-05-09T10:22:53;18.50;86.10
15749;DHT22;7976;52.526;13.326;2023-05-09T10:25:27;18.60;86.10
15749;DHT22;7976;52.526;13.326;2023-05-09T10:28:10;18.70;85.60
15749;DHT22;7976;52.526;13.326;2023-05-09T10:30:47;18.70;85.10
15749;DHT22;7976;52.526;13.326;2023-05-09T10:33:25;18.80;84.70
15749;DHT22;7976;52.526;13.326;2023-05-09T10:35:57;18.60;83.60
15749;DHT22;7976;52.526;13.326;2023-05-09T10:38:27;18.50;84.00
15749;DHT22;7976;52.526;13.326;2023-05-09T10:40:58;18.50;84.70
15749;DHT22;7976;52.526;13.326;2023-05-09T10:43:26;18.60;85.10
15749;DHT22;7976;52.526;13.326;2023-05-09T10:45:53;18.70;85.20
15749;DHT22;7976;52.526;13.326;2023-05-09T10:48:21;18.70;85.50
15749;DHT22;7976;52.526;13.326;2023-05-09T10:50:49;18.70;85.20
15749;DHT22;7976;52.526;13.326;2023-05-09T10:53:17;18.70;85.00
15749;DHT22;7976;52.526;13.326;2023-05-09T10:55:50;18.60;84.30
15749;DHT22;7976;52.526;13.326;2023-05-09T10:58:31;18.60;84.90
15749;DHT22;7976;52.526;13.326;2023-05-09T11:01:01;18.70;84.60
15749;DHT22;7976;52.526;13.326;2023-05-09T11:03:51;18.70;84.20
15749;DHT22;7976;52.526;13.326;2023-05-09T11:06:42;18.70;84.50
15749;DHT22;7976;52.526;13.326;2023-05-09T11:09:24;18.70;84.50
15749;DHT22;7976;52.526;13.326;2023-05-09T11:11:53;18.80;84.10
15749;DHT22;7976;52.526;13.326;2023-05-09T11:14:36;18.80;83.60
15749;DHT22;7976;52.526;13.326;2023-05-09T11:17:06;18.90;83.90
15749;DHT22;7976;52.526;13.326;2023-05-09T11:19:36;19.10;83.20
15749;DHT22;7976;52.526;13.326;2023-05-09T11:22:23;19.10;82.90
15749;DHT22;7976;52.526;13.326;2023-05-09T11:24:59;19.10;83.10
15749;DHT22;7976;52.526;13.326;2023-05-09T11:27:36;19.20;83.30
15749;DHT22;7976;52.526;13.326;2023-05-09T11:30:07;19.20;82.50
15749;DHT22;7976;52.526;13.326;2023-05-09T11:32:42;19.10;83.30
15749;DHT22;7976;52.526;13.326;2023-05-09T11:35:11;19.00;83.00
15749;DHT22;7976;52.526;13.326;2023-05-09T11:37:47;19.00;82.70
15749;DHT22;7976;52.526;13.326;2023-05-09T11:40:16;18.90;82.50
15749;DHT22;7976;52.526;13.326;2023-05-09T11:42:46;18.90;82.80
15749;DHT22;7976;52.526;13.326;2023-05-09T11:45:16;18.90;82.90
15749;DHT22;7976;52.526;13.326;2023-05-09T11:47:44;19.00;83.10
15749;DHT22;7976;52.526;13.326;2023-05-09T11:50:13;19.10;82.50
15749;DHT22;7976;52.526;13.326;2023-05-09T11:52:40;19.10;82.30
15749;DHT22;7976;52.526;13.326;2023-05-09T11:55:09;19.10;82.20
15749;DHT22;7976;52.526;13.326;2023-05-09T11:57:40;19.10;82.60
15749;DHT22;7976;52.526;13.326;2023-05-09T12:00:10;19.10;82.70
15749;DHT22;7976;52.526;13.326;2023-05-09T12:02:39;19.30;81.70
15749;DHT22;7976;52.526;13.326;2023-05-09T12:05:06;19.20;80.90
15749;DHT22;7976;52.526;13.326;2023-05-09T12:07:35;19.30;80.80
15749;DHT22;7976;52.526;13.326;2023-05-09T12:10:05;19.40;80.50
15749;DHT22;7976;52.526;13.326;2023-05-09T12:12:34;19.50;80.50
15749;DHT22;7976;52.526;13.326;2023-05-09T12:15:02;19.50;80.40
15749;DHT22;7976;52.526;13.326;2023-05-09T12:17:30;19.50;80.90
15749;DHT22;7976;52.526;13.326;2023-05-09T12:19:58;19.70;80.10
15749;DHT22;7976;52.526;13.326;2023-05-09T12:22:27;19.90;80.00
15749;DHT22;7976;52.526;13.326;2023-05-09T12:24:54;19.90;79.90
15749;DHT22;7976;52.526;13.326;2023-05-09T12:27:21;19.90;80.30
15749;DHT22;7976;52.526;13.326;2023-05-09T12:29:51;20.00;80.10
15749;DHT22;7976;52.526;13.326;2023-05-09T12:32:18;19.90;80.40
15749;DHT22;7976;52.526;13.326;2023-05-09T12:34:45;19.90;79.40
15749;DHT22;7976;52.526;13.326;2023-05-09T12:37:15;19.70;79.50
15749;DHT22;7976;52.526;13.326;2023-05-09T12:39:43;19.70;80.10
15749;DHT22;7976;52.526;13.326;2023-05-09T12:42:13;19.80;80.30
15749;DHT22;7976;52.526;13.326;2023-05-09T12:44:40;19.90;80.00
15749;DHT22;7976;52.526;13.326;2023-05-09T12:47:14;19.80;80.10
15749;DHT22;7976;52.526;13.326;2023-05-09T12:49:41;19.70;80.40
15749;DHT22;7976;52.526;13.326;2023-05-09T12:52:17;19.60;80.80
15749;DHT22;7976;52.526;13.326;2023-05-09T12:54:46;19.60;80.50
15749;DHT22;7976;52.526;13.326;2023-05-09T12:57:23;19.60;80.90
15749;DHT22;7976;52.526;13.326;2023-05-09T12:59:56;19.70;81.20
15749;DHT22;7976;52.526;13.326;2023-05-09T13:02:25;19.80;80.30
15749;DHT22;7976;52.526;13.326;2023-05-09T13:05:07;19.90;80.00
15749;DHT22;7976;52.526;13.326;2023-05-09T13:07:40;20.00;79.40
15749;DHT22;7976;52.526;13.326;2023-05-09T13:10:12;20.20;79.30
15749;DHT22;7976;52.526;13.326;2023-05-09T13:12:40;20.20;79.40
15749;DHT22;7976;52.526;13.326;2023-05-09T13:15:11;20.30;79.60
15749;DHT22;7976;52.526;13.326;2023-05-09T13:17:38;20.30;79.20
15749;DHT22;7976;52.526;13.326;2023-05-09T13:20:06;20.30;79.30
15749;DHT22;7976;52.526;13.326;2023-05-09T13:22:34;20.30;79.10
15749;DHT22;7976;52.526;13.326;2023-05-09T13:25:02;20.30;79.30
15749;DHT22;7976;52.526;13.326;2023-05-09T13:27:29;20.30;79.10
15749;DHT22;7976;52.526;13.326;2023-05-09T13:29:56;20.30;79.10
15749;DHT22;7976;52.526;13.326;2023-05-09T13:32:23;20.30;79.30
15749;DHT22;7976;52.526;13.326;2023-05-09T13:34:50;20.40;78.80
15749;DHT22;7976;52.526;13.326;2023-05-09T13:37:17;20.40;78.80
15749;DHT22;7976;52.526;13.326;2023-05-09T13:39:44;20.30;78.30
15749;DHT22;7976;52.526;13.326;2023-05-09T13:42:12;20.20;78.40
15749;DHT22;7976;52.526;13.326;2023-05-09T13:44:39;20.20;78.80
15749;DHT22;7976;52.526;13.326;2023-05-09T13:47:06;20.20;79.10
15749;DHT22;7976;52.526;13.326;2023-05-09T13:49:33;20.20;79.20
15749;DHT22;7976;52.526;13.326;2023-05-09T13:51:59;20.30;78.60
15749;DHT22;7976;52.526;13.326;2023-05-09T13:54:26;20.30;78.40
15749;DHT22;7976;52.526;13.326;2023-05-09T13:56:59;20.30;77.90
15749;DHT22;7976;52.526;13.326;2023-05-09T13:59:29;20.40;78.00
15749;DHT22;7976;52.526;13.326;2023-05-09T14:01:56;20.40;77.70
15749;DHT22;7976;52.526;13.326;2023-05-09T14:04:24;20.50;77.20
15749;DHT22;7976;52.526;13.326;2023-05-09T14:06:51;20.50;77.00
15749;DHT22;7976;52.526;13.326;2023-05-09T14:09:18;20.50;77.10
15749;DHT22;7976;52.526;13.326;2023-05-09T14:11:46;20.40;77.40
15749;DHT22;7976;52.526;13.326;2023-05-09T14:14:13;20.40;77.80
15749;DHT22;7976;52.526;13.326;2023-05-09T14:16:47;20.40;78.00
15749;DHT22;7976;52.526;13.326;2023-05-09T14:19:15;20.40;77.90
15749;DHT22;7976;52.526;13.326;2023-05-09T14:21:42;20.40;77.80
15749;DHT22;7976;52.526;13.326;2023-05-09T14:24:11;20.40;77.80
15749;DHT22;7976;52.526;13.326;2023-05-09T14:26:38;20.40;77.30
15749;DHT22;7976;52.526;13.326;2023-05-09T14:29:05;20.30;77.40
15749;DHT22;7976;52.526;13.326;2023-05-09T14:31:32;20.30;77.90
15749;DHT22;7976;52.526;13.326;2023-05-09T14:34:00;20.30;77.40
15749;DHT22;7976;52.526;13.326;2023-05-09T14:36:29;20.30;77.60
15749;DHT22;7976;52.526;13.326;2023-05-09T14:38:57;20.30;77.50
15749;DHT22;7976;52.526;13.326;2023-05-09T14:41:24;20.30;77.30
15749;DHT22;7976;52.526;13.326;2023-05-09T14:43:51;20.30;76.80
15749;DHT22;7976;52.526;13.326;2023-05-09T14:46:18;20.30;77.30
15749;DHT22;7976;52.526;13.326;2023-05-09T14:48:44;20.40;77.30
15749;DHT22;7976;52.526;13.326;2023-05-09T14:51:12;20.40;76.70
15749;DHT22;7976;52.526;13.326;2023-05-09T14:53:39;20.30;76.40
15749;DHT22;7976;52.526;13.326;2023-05-09T14:56:07;20.30;77.00
15749;DHT22;7976;52.526;13.326;2023-05-09T14:58:36;20.30;77.00
15749;DHT22;7976;52.526;13.326;2023-05-09T15:01:02;20.30;76.60
15749;DHT22;7976;52.526;13.326;2023-05-09T15:03:29;20.30;76.70
15749;DHT22;7976;52.526;13.326;2023-05-09T15:05:57;20.30;76.30
15749;DHT22;7976;52.526;13.326;2023-05-09T15:08:25;20.30;76.60
15749;DHT22;7976;52.526;13.326;2023-05-09T15:10:52;20.20;76.70
15749;DHT22;7976;52.526;13.326;2023-05-09T15:13:19;20.30;77.00
15749;DHT22;7976;52.526;13.326;2023-05-09T15:15:46;20.30;77.00
15749;DHT22;7976;52.526;13.326;2023-05-09T15:18:13;20.20;77.20
15749;DHT22;7976;52.526;13.326;2023-05-09T15:20:41;20.20;77.20
15749;DHT22;7976;52.526;13.326;2023-05-09T15:23:08;20.10;77.10
15749;DHT22;7976;52.526;13.326;2023-05-09T15:25:39;20.00;77.40
15749;DHT22;7976;52.526;13.326;2023-05-09T15:28:07;20.00;77.70
15749;DHT22;7976;52.526;13.326;2023-05-09T15:30:34;20.00;77.90
15749;DHT22;7976;52.526;13.326;2023-05-09T15:33:03;20.00;77.90
15749;DHT22;7976;52.526;13.326;2023-05-09T15:35:30;20.00;78.00
15749;DHT22;7976;52.526;13.326;2023-05-09T15:37:56;20.00;77.80
15749;DHT22;7976;52.526;13.326;2023-05-09T15:40:23;20.00;77.90
15749;DHT22;7976;52.526;13.326;2023-05-09T15:42:52;20.00;78.00